Time;durP1;ratioP1;P1;durP2;ratioP2;P2;SDS_P1;SDS_P2;PMS_P1;PMS_P2;Temp;Humidity;BMP_temperature;BMP_pressure;BME280_temperature;BME280_humidity;BME280_pressure;Samples;Min_cycle;Max_cycle;Signal;HPM_P1;HPM_P2
2022/01/27 16:17:42;;;;;;;9.70;2.47;;;14.60;76.90;;;;;;2291790;62;30304;-75
2022/01/27 16:20:12;;;;;;;6.53;2.35;;;14.60;76.50;;;;;;2274344;62;30769;-75
2022/01/27 16:22:39;;;;;;;7.55;2.10;;;14.60;77.50;;;;;;2285563;62;30151;-73
2022/01/27 16:25:05;;;;;;;5.65;2.22;;;14.70;78.40;;;;;;2282682;62;30303;-76
2022/01/27 16:27:31;;;;;;;6.35;2.10;;;14.80;79.00;;;;;;2284132;62;31174;-75
2022/01/27 16:30:00;;;;;;;4.35;2.20;;;14.90;79.40;;;;;;2281392;62;30047;-75
2022/01/27 16:32:27;;;;;;;5.75;1.98;;;15.00;79.60;;;;;;2281632;62;30112;-74
2022/01/27 16:34:53;;;;;;;5.70;2.40;;;15.00;79.80;;;;;;2281685;62;30864;-74
2022/01/27 16:37:19;;;;;;;5.05;1.98;;;15.10;80.10;;;;;;2281855;62;30304;-75
2022/01/27 16:39:45;;;;;;;5.75;2.47;;;15.10;80.30;;;;;;2281976;62;30071;-75
2022/01/27 16:42:11;;;;;;;5.15;2.35;;;15.10;80.40;;;;;;2281188;62;30331;-74
2022/01/27 16:44:40;;;;;;;6.32;1.90;;;15.10;80.50;;;;;;2281543;62;31665;-74
2022/01/27 16:47:06;;;;;;;6.97;2.47;;;15.10;80.70;;;;;;2267184;62;30946;-74
2022/01/27 16:49:31;;;;;;;7.05;2.20;;;15.20;81.00;;;;;;2281464;62;30173;-74
2022/01/27 16:52:00;;;;;;;3.92;1.70;;;15.30;81.00;;;;;;2281519;62;30205;-74
2022/01/27 16:54:28;;;;;;;6.75;2.40;;;15.40;81.10;;;;;;2281616;62;30209;-74
2022/01/27 16:56:54;;;;;;;6.28;1.90;;;15.40;81.30;;;;;;2281373;62;30729;-73
2022/01/27 16:59:20;;;;;;;7.10;2.25;;;15.50;80.90;;;;;;2281819;62;30165;-73
2022/01/27 17:01:46;;;;;;;4.97;1.90;;;15.60;80.60;;;;;;2281673;62;30228;-74
2022/01/27 17:04:12;;;;;;;5.68;2.10;;;15.60;80.40;;;;;;2281555;62;30774;-75
2022/01/27 17:06:38;;;;;;;6.55;2.45;;;15.50;80.30;;;;;;2283155;62;30235;-74
2022/01/27 17:09:04;;;;;;;4.38;2.22;;;15.60;80.50;;;;;;2280654;62;30390;-74
2022/01/27 17:11:29;;;;;;;6.00;2.08;;;15.60;80.40;;;;;;2281518;62;30192;-74
2022/01/27 17:13:55;;;;;;;5.38;2.13;;;15.60;80.40;;;;;;2281758;62;31020;-75
2022/01/27 17:16:21;;;;;;;6.35;2.13;;;15.60;80.30;;;;;;2281508;62;30394;-75
2022/01/27 17:18:50;;;;;;;6.22;2.20;;;15.70;80.30;;;;;;2278862;62;30129;-74
2022/01/27 17:21:18;;;;;;;5.30;2.45;;;15.70;80.10;;;;;;2282823;62;30211;-75
2022/01/27 17:23:45;;;;;;;5.75;2.17;;;15.70;80.00;;;;;;2285025;62;30462;-74
2022/01/27 17:26:11;;;;;;;4.53;2.08;;;15.80;79.90;;;;;;2289974;62;30572;-74
2022/01/27 17:28:37;;;;;;;3.90;2.45;;;15.80;79.80;;;;;;2277949;62;30282;-75
2022/01/27 17:31:03;;;;;;;4.20;1.92;;;15.80;79.60;;;;;;2276652;62;30418;-73
2022/01/27 17:33:29;;;;;;;5.53;2.30;;;15.80;79.40;;;;;;2276131;62;30729;-74
2022/01/27 17:35:55;;;;;;;3.50;1.92;;;15.80;79.10;;;;;;2276548;62;30455;-74
2022/01/27 17:38:21;;;;;;;5.68;2.22;;;15.80;79.00;;;;;;2264664;62;30129;-75
2022/01/27 17:40:48;;;;;;;4.32;1.90;;;15.70;78.80;;;;;;2276562;62;30351;-75
2022/01/27 17:43:31;;;;;;;5.90;2.35;;;15.70;78.80;;;;;;2268853;62;30308;-74
2022/01/27 17:45:57;;;;;;;8.98;2.90;;;15.60;79.00;;;;;;2270981;62;30406;-76
2022/01/27 17:48:26;;;;;;;10.57;3.17;;;15.60;78.90;;;;;;2268624;62;30700;-75
2022/01/27 17:50:53;;;;;;;17.83;4.18;;;15.60;78.90;;;;;;2268777;62;30242;-75
2022/01/27 17:53:19;;;;;;;21.98;4.93;;;15.60;78.90;;;;;;2268628;62;30389;-76
2022/01/27 17:55:45;;;;;;;29.27;6.45;;;15.60;79.00;;;;;;2276043;62;30142;-75
2022/01/27 17:58:11;;;;;;;28.10;6.78;;;15.60;79.30;;;;;;2275927;62;30254;-75
2022/01/27 18:00:36;;;;;;;23.77;5.72;;;15.60;79.20;;;;;;2275997;62;30780;-75
2022/01/27 18:03:03;;;;;;;21.13;5.20;;;15.60;79.20;;;;;;2268725;62;32209;-74
2022/01/27 18:05:32;;;;;;;14.80;5.03;;;15.70;79.20;;;;;;2280784;62;31588;-76
2022/01/27 18:07:58;;;;;;;12.52;4.50;;;15.70;79.20;;;;;;2284231;62;30057;-76
2022/01/27 18:10:25;;;;;;;17.98;5.25;;;15.80;78.80;;;;;;2284034;62;30178;-75
2022/01/27 18:12:52;;;;;;;20.02;5.43;;;15.70;78.70;;;;;;2270253;62;30323;-75
2022/01/27 18:15:20;;;;;;;19.90;4.60;;;15.70;79.00;;;;;;2277426;62;31862;-75
2022/01/27 18:17:46;;;;;;;17.15;5.05;;;15.70;79.30;;;;;;2277653;62;30261;-74
2022/01/27 18:20:12;;;;;;;19.33;4.43;;;15.80;79.30;;;;;;2279170;62;30251;-75
2022/01/27 18:22:40;;;;;;;12.57;3.95;;;15.90;79.10;;;;;;2276392;62;31274;-76
2022/01/27 18:25:06;;;;;;;10.05;3.50;;;16.00;78.90;;;;;;2276961;62;30395;-79
2022/01/27 18:27:32;;;;;;;8.77;3.35;;;16.10;78.70;;;;;;2276728;62;30214;-73
2022/01/27 18:29:58;;;;;;;11.32;3.38;;;16.20;78.50;;;;;;2269796;62;30917;-75
2022/01/27 18:32:24;;;;;;;8.15;2.80;;;16.30;78.30;;;;;;2277119;62;31078;-76
2022/01/27 18:34:51;;;;;;;6.00;2.45;;;16.40;78.00;;;;;;2276351;62;30224;-77
2022/01/27 18:37:18;;;;;;;8.82;3.05;;;16.40;77.80;;;;;;2277300;62;30209;-75
2022/01/27 18:39:43;;;;;;;6.70;2.50;;;16.50;77.50;;;;;;2276257;62;30232;-75
2022/01/27 18:42:09;;;;;;;7.78;2.65;;;16.60;77.30;;;;;;2276748;62;30142;-75
2022/01/27 18:44:35;;;;;;;6.22;2.65;;;16.60;77.10;;;;;;2276804;62;30216;-76
2022/01/27 18:47:01;;;;;;;7.55;2.70;;;16.60;76.80;;;;;;2269484;62;30321;-76
2022/01/27 18:49:27;;;;;;;6.70;2.40;;;16.70;76.60;;;;;;2276565;62;30319;-75
2022/01/27 18:51:53;;;;;;;6.85;2.35;;;16.80;76.40;;;;;;2276698;62;30813;-76
2022/01/27 18:54:19;;;;;;;6.35;2.40;;;16.80;76.20;;;;;;2276530;62;31719;-79
2022/01/27 18:56:45;;;;;;;7.13;2.42;;;16.90;76.10;;;;;;2276289;62;30183;-76
2022/01/27 18:59:14;;;;;;;9.23;2.30;;;16.80;75.80;;;;;;2278777;62;30161;-75
2022/01/27 19:01:40;;;;;;;7.03;2.20;;;16.90;75.70;;;;;;2274752;62;31857;-75
2022/01/27 19:04:06;;;;;;;3.88;2.15;;;16.90;75.50;;;;;;2262144;62;30335;-75
2022/01/27 19:06:32;;;;;;;5.07;2.25;;;16.90;75.20;;;;;;2276642;62;30223;-75
2022/01/27 19:08:58;;;;;;;5.65;2.03;;;17.00;75.20;;;;;;2276515;62;30061;-74
2022/01/27 19:11:26;;;;;;;6.32;2.25;;;17.00;75.10;;;;;;2276570;62;31213;-74
2022/01/27 19:13:52;;;;;;;5.30;2.03;;;17.00;74.80;;;;;;2269249;62;30329;-73
2022/01/27 19:16:18;;;;;;;3.72;1.88;;;17.00;74.70;;;;;;2276233;62;30227;-73
2022/01/27 19:18:44;;;;;;;3.05;2.00;;;17.10;74.70;;;;;;2276620;62;30173;-73
2022/01/27 19:21:10;;;;;;;3.92;1.90;;;17.10;74.50;;;;;;2276463;62;30051;-74
2022/01/27 19:23:45;;;;;;;7.10;2.25;;;17.10;74.30;;;;;;2276059;62;30730;-72
2022/01/27 19:26:11;;;;;;;5.22;1.80;;;17.10;74.20;;;;;;2276577;62;30224;-72
2022/01/27 19:28:37;;;;;;;4.35;1.92;;;17.10;74.10;;;;;;2269279;62;30340;-72
2022/01/27 19:31:02;;;;;;;3.45;1.90;;;17.20;73.90;;;;;;2276299;62;30400;-72
2022/01/27 19:33:29;;;;;;;4.10;1.70;;;17.20;73.80;;;;;;2276438;62;30808;-72
2022/01/27 19:35:55;;;;;;;6.30;1.90;;;17.20;73.70;;;;;;2276494;62;30123;-72
2022/01/27 19:38:22;;;;;;;3.63;2.00;;;17.20;73.60;;;;;;2276085;62;30502;-72
2022/01/27 19:40:49;;;;;;;6.50;2.40;;;17.30;73.50;;;;;;2269089;62;30254;-73
2022/01/27 19:43:15;;;;;;;4.47;2.00;;;17.30;73.50;;;;;;2276173;62;30150;-73
2022/01/27 19:45:41;;;;;;;3.75;1.90;;;17.30;73.50;;;;;;2276276;62;30246;-73
2022/01/27 19:48:08;;;;;;;5.25;1.80;;;17.30;73.50;;;;;;2262362;62;30161;-72
2022/01/27 19:50:34;;;;;;;5.30;2.00;;;17.30;73.50;;;;;;2276086;62;30930;-72
2022/01/27 19:53:02;;;;;;;4.85;2.10;;;17.30;73.40;;;;;;2268722;62;31658;-73
2022/01/27 19:55:28;;;;;;;4.53;2.00;;;17.20;73.30;;;;;;2276333;62;30313;-72
2022/01/27 19:57:57;;;;;;;2.80;1.90;;;17.20;73.20;;;;;;2268765;62;29988;-72
2022/01/27 20:00:23;;;;;;;3.67;1.83;;;17.20;73.10;;;;;;2282145;62;30248;-72
2022/01/27 20:02:53;;;;;;;3.97;2.20;;;17.20;73.10;;;;;;2284513;62;30141;-72
2022/01/27 20:05:20;;;;;;;5.38;1.80;;;17.20;72.90;;;;;;2270109;62;30168;-75
2022/01/27 20:07:53;;;;;;;4.82;1.60;;;17.20;73.00;;;;;;2284450;62;30283;-75
2022/01/27 20:10:20;;;;;;;3.67;1.60;;;17.10;72.70;;;;;;2277281;62;31467;-74
2022/01/27 20:12:49;;;;;;;4.82;1.60;;;17.10;72.90;;;;;;2284245;62;30649;-75
2022/01/27 20:15:15;;;;;;;3.33;1.48;;;17.10;72.80;;;;;;2284446;62;30355;-74
2022/01/27 20:17:41;;;;;;;4.57;1.90;;;17.10;72.70;;;;;;2284374;62;30370;-74
2022/01/27 20:20:07;;;;;;;4.47;2.13;;;17.10;72.70;;;;;;2284214;62;31265;-72
2022/01/27 20:22:33;;;;;;;3.33;1.70;;;17.10;72.60;;;;;;2276968;62;30258;-73
2022/01/27 20:25:02;;;;;;;3.45;1.60;;;17.10;72.50;;;;;;2284393;62;30403;-72
2022/01/27 20:27:27;;;;;;;3.42;1.67;;;17.10;72.40;;;;;;2284049;62;30190;-72
2022/01/27 20:29:53;;;;;;;5.18;2.05;;;17.10;72.40;;;;;;2284375;62;30208;-72
2022/01/27 20:32:19;;;;;;;4.93;2.20;;;17.10;72.30;;;;;;2283875;62;30301;-72
2022/01/27 20:34:45;;;;;;;3.25;1.88;;;17.10;72.20;;;;;;2284029;62;30358;-72
2022/01/27 20:37:11;;;;;;;4.53;2.58;;;17.10;72.20;;;;;;2284224;62;30217;-72
2022/01/27 20:39:37;;;;;;;4.63;2.08;;;17.10;72.10;;;;;;2276917;62;30342;-72
2022/01/27 20:42:03;;;;;;;3.22;1.85;;;17.10;72.10;;;;;;2284038;62;30654;-72
2022/01/27 20:44:29;;;;;;;4.22;1.90;;;17.10;72.00;;;;;;2284274;62;30122;-76
2022/01/27 20:46:55;;;;;;;5.78;2.22;;;17.10;72.00;;;;;;2283352;62;30011;-77
2022/01/27 20:49:21;;;;;;;2.58;1.85;;;17.10;71.90;;;;;;2284206;62;31051;-75
2022/01/27 20:51:49;;;;;;;3.03;1.88;;;17.10;72.00;;;;;;2284292;62;30662;-74
2022/01/27 20:54:15;;;;;;;4.28;2.00;;;17.10;71.90;;;;;;2283886;62;30154;-77
2022/01/27 20:56:43;;;;;;;5.30;2.47;;;17.00;71.80;;;;;;2284109;62;30102;-73
2022/01/27 20:59:09;;;;;;;3.53;1.65;;;17.00;71.70;;;;;;2284083;62;30135;-73
2022/01/27 21:01:35;;;;;;;3.63;1.88;;;17.00;71.70;;;;;;2283796;62;30088;-75
2022/01/27 21:04:01;;;;;;;4.75;2.10;;;17.00;71.60;;;;;;2282929;62;30166;-74
2022/01/27 21:06:27;;;;;;;3.75;2.42;;;17.00;71.60;;;;;;2281204;62;30295;-78
2022/01/27 21:08:53;;;;;;;3.33;1.92;;;17.00;71.50;;;;;;2279509;62;30366;-80
2022/01/27 21:11:18;;;;;;;2.72;1.77;;;17.10;71.40;;;;;;2277228;62;30216;-77
2022/01/27 21:13:44;;;;;;;5.38;2.13;;;17.10;72.00;;;;;;2270007;62;30246;-84
2022/01/27 21:16:10;;;;;;;3.55;2.22;;;17.10;71.20;;;;;;2276682;62;30283;-85
2022/01/27 21:18:36;;;;;;;3.53;1.73;;;17.10;71.00;;;;;;2269952;62;30888;-83
2022/01/27 21:21:03;;;;;;;4.28;2.10;;;17.10;70.90;;;;;;2270028;62;30164;-79
2022/01/27 21:23:28;;;;;;;4.63;1.88;;;17.10;70.80;;;;;;2276966;62;30164;-81
2022/01/27 21:25:56;;;;;;;3.55;1.88;;;17.20;70.70;;;;;;2269905;62;30302;-77
2022/01/27 21:28:22;;;;;;;5.00;2.30;;;17.20;70.60;;;;;;2277124;62;30266;-78
2022/01/27 21:30:48;;;;;;;3.00;1.90;;;17.20;70.50;;;;;;2282770;62;30493;-82
2022/01/27 21:33:16;;;;;;;3.72;2.03;;;17.20;70.50;;;;;;2285082;62;30197;-79
2022/01/27 21:35:42;;;;;;;3.20;1.80;;;17.20;70.50;;;;;;2280151;62;30419;-74
2022/01/27 21:38:08;;;;;;;2.92;1.80;;;17.20;70.40;;;;;;2275538;62;30485;-75
2022/01/27 21:40:34;;;;;;;2.55;1.77;;;17.20;70.40;;;;;;2276095;62;30676;-75
2022/01/27 21:43:00;;;;;;;3.83;1.55;;;17.20;70.40;;;;;;2268667;62;30089;-74
2022/01/27 21:45:28;;;;;;;3.65;2.00;;;17.20;70.30;;;;;;2268626;62;30065;-74
2022/01/27 21:47:54;;;;;;;4.63;2.20;;;17.20;70.30;;;;;;2268570;62;30883;-76
2022/01/27 21:50:20;;;;;;;4.47;2.15;;;17.20;70.30;;;;;;2275710;62;30193;-75
2022/01/27 21:52:46;;;;;;;4.22;2.13;;;17.20;70.30;;;;;;2276054;62;30039;-75
2022/01/27 21:55:17;;;;;;;5.18;2.38;;;17.20;70.30;;;;;;2272608;62;30257;-75
2022/01/27 21:57:43;;;;;;;5.00;2.08;;;17.20;70.20;;;;;;2283914;62;30977;-74
2022/01/27 22:00:10;;;;;;;4.80;1.92;;;17.20;70.20;;;;;;2277247;62;30517;-75
2022/01/27 22:02:36;;;;;;;4.15;1.88;;;17.20;70.20;;;;;;2280199;62;30826;-75
2022/01/27 22:05:02;;;;;;;4.43;1.77;;;17.20;70.10;;;;;;2277456;62;30175;-75
2022/01/27 22:07:29;;;;;;;4.13;1.77;;;17.20;70.20;;;;;;2284027;62;30287;-75
2022/01/27 22:09:57;;;;;;;4.22;2.08;;;17.20;70.10;;;;;;2269746;62;30358;-75
2022/01/27 22:12:25;;;;;;;5.32;2.08;;;17.20;70.00;;;;;;2261561;62;30296;-75
2022/01/27 22:14:51;;;;;;;4.22;2.10;;;17.20;70.00;;;;;;2275864;62;30410;-75
2022/01/27 22:17:17;;;;;;;4.65;2.05;;;17.20;70.00;;;;;;2261442;62;30774;-74
2022/01/27 22:19:45;;;;;;;5.40;2.22;;;17.20;70.00;;;;;;2275018;62;30098;-75
2022/01/27 22:22:11;;;;;;;4.88;2.10;;;17.20;70.00;;;;;;2275227;62;30686;-75
2022/01/27 22:24:37;;;;;;;4.53;2.33;;;17.20;69.90;;;;;;2275537;62;30123;-75
2022/01/27 22:27:05;;;;;;;5.75;2.40;;;17.20;70.70;;;;;;2275346;62;31059;-74
2022/01/27 22:29:31;;;;;;;4.45;2.47;;;17.20;69.90;;;;;;2279157;62;30723;-75
2022/01/27 22:31:59;;;;;;;3.67;2.10;;;17.20;70.00;;;;;;2283984;62;30368;-75
2022/01/27 22:34:31;;;;;;;3.67;2.05;;;17.20;70.00;;;;;;2283742;62;30209;-75
2022/01/27 22:37:02;;;;;;;4.57;1.73;;;17.20;70.00;;;;;;2283844;62;30251;-75
2022/01/27 22:39:28;;;;;;;5.03;1.73;;;17.20;70.00;;;;;;2276253;62;30308;-75
2022/01/27 22:41:54;;;;;;;5.05;2.05;;;17.20;70.00;;;;;;2283866;62;30207;-75
2022/01/27 22:44:20;;;;;;;3.30;1.95;;;17.20;70.00;;;;;;2283926;62;30509;-75
2022/01/27 22:46:47;;;;;;;4.63;2.10;;;17.20;70.00;;;;;;2283567;62;30071;-75
2022/01/27 22:49:14;;;;;;;4.20;2.20;;;17.20;70.00;;;;;;2276560;62;30193;-75
2022/01/27 22:51:40;;;;;;;5.50;2.20;;;17.20;69.90;;;;;;2283791;62;30136;-75
2022/01/27 22:54:06;;;;;;;5.95;2.15;;;17.20;70.00;;;;;;2283417;62;30052;-75
2022/01/27 22:56:32;;;;;;;4.63;2.00;;;17.20;70.00;;;;;;2283404;62;31110;-75
2022/01/27 22:58:58;;;;;;;3.72;1.75;;;17.10;69.90;;;;;;2283547;62;30369;-75
2022/01/27 23:01:24;;;;;;;3.72;1.92;;;17.20;69.90;;;;;;2283421;62;30428;-78
2022/01/27 23:03:51;;;;;;;3.42;2.10;;;17.10;69.80;;;;;;2283510;62;30124;-75
2022/01/27 23:06:17;;;;;;;4.30;2.00;;;17.10;69.80;;;;;;2283650;62;30930;-75
2022/01/27 23:08:44;;;;;;;3.90;1.98;;;17.10;69.70;;;;;;2283602;62;30131;-77
2022/01/27 23:11:15;;;;;;;4.47;2.13;;;17.10;69.80;;;;;;2283802;62;30082;-77
2022/01/27 23:13:42;;;;;;;4.97;2.03;;;17.10;69.80;;;;;;2283903;62;30530;-76
